Time;durP1;ratioP1;P1;durP2;ratioP2;P2;SDS_P1;SDS_P2;PMS_P1;PMS_P2;Temp;Humidity;BMP_temperature;BMP_pressure;BME280_temperature;BME280_humidity;BME280_pressure;Samples;Min_cycle;Max_cycle;Signal;HPM_P1;HPM_P2
2022/05/19 00:01:44;;;;;;;6.18;3.85;;;19.10;99.90;;;;;;4978801;28;20030;-75
2022/05/19 00:04:10;;;;;;;5.13;3.30;;;19.10;99.90;;;;;;4987618;28;20490;-76
2022/05/19 00:06:35;;;;;;;4.93;3.67;;;19.00;99.90;;;;;;4984634;28;20038;-75
2022/05/19 00:09:01;;;;;;;5.43;3.58;;;19.00;99.90;;;;;;4981534;28;20097;-73
2022/05/19 00:11:32;;;;;;;5.60;3.53;;;19.00;99.90;;;;;;4984910;28;20133;-76
2022/05/19 00:13:57;;;;;;;4.45;3.80;;;19.00;99.90;;;;;;4988049;28;20050;-73
2022/05/19 00:16:23;;;;;;;5.68;3.50;;;19.00;99.90;;;;;;4985030;28;20070;-74
2022/05/19 00:18:49;;;;;;;3.92;3.33;;;18.90;99.90;;;;;;4981266;28;20057;-75
2022/05/19 00:21:14;;;;;;;5.05;3.97;;;18.80;99.90;;;;;;4983903;28;20093;-77
2022/05/19 00:23:40;;;;;;;5.70;3.60;;;18.80;99.90;;;;;;4987811;28;20121;-77
2022/05/19 00:26:05;;;;;;;6.78;3.72;;;18.70;99.90;;;;;;4984760;28;20479;-77
2022/05/19 00:28:31;;;;;;;3.58;3.25;;;18.70;99.90;;;;;;4977703;28;20029;-76
2022/05/19 00:30:56;;;;;;;5.35;3.33;;;18.70;99.90;;;;;;4984127;28;20032;-74
2022/05/19 00:33:22;;;;;;;6.28;3.60;;;18.70;99.90;;;;;;4980975;28;20442;-77
2022/05/19 00:35:48;;;;;;;3.67;3.30;;;18.70;99.90;;;;;;4984357;28;20089;-76
2022/05/19 00:38:14;;;;;;;4.78;3.55;;;18.70;99.90;;;;;;4984871;28;20018;-77
2022/05/19 00:40:49;;;;;;;8.25;3.47;;;18.70;99.90;;;;;;4983514;28;20104;-77
2022/05/19 00:43:15;;;;;;;4.90;3.67;;;18.70;99.90;;;;;;4979601;28;20029;-77
2022/05/19 00:45:51;;;;;;;4.10;3.50;;;18.60;99.90;;;;;;4981703;28;20026;-77
2022/05/19 00:48:22;;;;;;;4.85;3.63;;;18.60;99.90;;;;;;4986290;28;20023;-77
2022/05/19 00:50:56;;;;;;;4.32;3.70;;;18.60;99.90;;;;;;4986727;28;20515;-77
2022/05/19 00:53:28;;;;;;;7.70;3.95;;;18.50;99.90;;;;;;4970067;28;20028;-76
2022/05/19 00:55:57;;;;;;;5.18;3.65;;;18.50;99.90;;;;;;4980406;28;20496;-76
2022/05/19 00:58:31;;;;;;;4.22;3.50;;;18.50;99.90;;;;;;4983520;28;20033;-74
2022/05/19 01:00:57;;;;;;;6.68;3.65;;;18.40;99.90;;;;;;4973423;28;20425;-73
2022/05/19 01:03:24;;;;;;;7.22;3.50;;;18.40;99.90;;;;;;4983491;28;20031;-75
2022/05/19 01:06:00;;;;;;;5.30;3.92;;;18.30;99.90;;;;;;4978993;28;20026;-74
2022/05/19 01:08:34;;;;;;;6.72;4.05;;;18.20;99.90;;;;;;4982224;28;20080;-76
2022/05/19 01:11:02;;;;;;;7.40;3.90;;;18.20;99.90;;;;;;4986277;28;20023;-76
2022/05/19 01:13:30;;;;;;;4.40;3.50;;;18.10;99.90;;;;;;4984998;28;20073;-75
2022/05/19 01:15:56;;;;;;;7.70;3.58;;;18.10;99.90;;;;;;4967706;28;20053;-75
2022/05/19 01:18:25;;;;;;;4.07;3.67;;;18.10;99.90;;;;;;4977131;28;20026;-75
2022/05/19 01:20:51;;;;;;;10.82;3.60;;;18.20;99.90;;;;;;4973052;28;20077;-75
2022/05/19 01:23:48;;;;;;;5.90;3.60;;;18.10;99.90;;;;;;4974094;28;20031;-74
2022/05/19 01:26:32;;;;;;;5.50;3.60;;;18.10;99.90;;;;;;4993047;28;20037;-75
2022/05/19 01:28:58;;;;;;;4.68;3.47;;;18.10;99.90;;;;;;4968662;28;20069;-73
2022/05/19 01:31:37;;;;;;;4.70;3.47;;;18.00;99.90;;;;;;4978798;28;20031;-76
2022/05/19 01:34:06;;;;;;;4.50;3.72;;;18.00;99.90;;;;;;4982768;28;20113;-75
2022/05/19 01:36:32;;;;;;;5.05;3.90;;;18.00;99.90;;;;;;4977313;28;20103;-74
2022/05/19 01:39:05;;;;;;;5.18;3.80;;;17.90;99.90;;;;;;4973967;28;20113;-74
2022/05/19 01:41:53;;;;;;;6.00;3.30;;;17.80;99.90;;;;;;4985007;28;20472;-73
2022/05/19 01:44:37;;;;;;;4.78;3.30;;;17.90;99.90;;;;;;4952818;28;20519;-74
2022/05/19 01:47:21;;;;;;;3.95;3.58;;;17.80;99.90;;;;;;4982637;28;20035;-73
2022/05/19 01:50:07;;;;;;;5.45;3.70;;;17.70;99.90;;;;;;4973488;28;20023;-74
2022/05/19 01:52:32;;;;;;;6.18;3.60;;;17.60;99.90;;;;;;4984616;28;20101;-73
2022/05/19 01:55:09;;;;;;;7.43;3.75;;;17.60;99.90;;;;;;4980636;28;20522;-74
2022/05/19 01:57:39;;;;;;;4.13;3.58;;;17.40;99.90;;;;;;4977514;28;20031;-74
2022/05/19 02:00:18;;;;;;;4.38;3.78;;;17.40;99.90;;;;;;4981411;28;20505;-74
2022/05/19 02:02:52;;;;;;;7.07;3.83;;;17.20;99.90;;;;;;4975072;28;20030;-74
2022/05/19 02:05:51;;;;;;;5.82;3.85;;;16.80;99.90;;;;;;4972006;28;20118;-74
2022/05/19 02:08:23;;;;;;;6.38;4.28;;;16.70;99.90;;;;;;4963965;28;20038;-74
2022/05/19 02:10:52;;;;;;;7.57;3.67;;;16.70;99.90;;;;;;4984711;28;20381;-74
2022/05/19 02:13:20;;;;;;;6.70;3.70;;;16.70;99.90;;;;;;4983407;28;20053;-74
2022/05/19 02:15:48;;;;;;;5.40;4.18;;;16.40;99.90;;;;;;4974375;28;20023;-74
2022/05/19 02:18:17;;;;;;;5.03;4.05;;;16.40;99.90;;;;;;4983712;28;20369;-74
2022/05/19 02:20:44;;;;;;;4.18;3.78;;;16.40;99.90;;;;;;4973250;28;20113;-75
2022/05/19 02:23:11;;;;;;;6.25;3.88;;;16.40;99.90;;;;;;4984240;28;20065;-76
2022/05/19 02:25:46;;;;;;;4.60;3.88;;;16.30;99.90;;;;;;4972622;28;20034;-75
2022/05/19 02:28:32;;;;;;;4.55;4.13;;;16.10;99.90;;;;;;4988736;28;20030;-75
2022/05/19 02:30:58;;;;;;;6.03;4.50;;;15.80;99.90;;;;;;4986674;28;20060;-76
2022/05/19 02:33:24;;;;;;;5.40;4.10;;;15.60;99.90;;;;;;4983401;28;20031;-73
2022/05/19 02:35:51;;;;;;;6.43;3.85;;;15.60;99.90;;;;;;4996306;28;20022;-74
2022/05/19 02:38:18;;;;;;;5.68;4.03;;;15.70;99.90;;;;;;4992800;28;20035;-74
2022/05/19 02:40:44;;;;;;;5.85;4.25;;;15.90;99.90;;;;;;4976204;28;20034;-74
2022/05/19 02:43:11;;;;;;;5.38;4.30;;;15.70;99.90;;;;;;4989614;28;20027;-74
2022/05/19 02:45:37;;;;;;;4.65;4.13;;;15.80;99.90;;;;;;4976579;28;20543;-74
2022/05/19 02:48:04;;;;;;;4.95;4.45;;;15.70;99.90;;;;;;4980445;28;20034;-75
2022/05/19 02:50:30;;;;;;;6.30;4.20;;;15.70;99.90;;;;;;4983537;28;20026;-74
2022/05/19 02:52:55;;;;;;;5.60;4.25;;;15.50;99.90;;;;;;4989617;28;20027;-74
2022/05/19 02:55:21;;;;;;;4.90;4.10;;;15.60;99.90;;;;;;4976925;28;20027;-74
2022/05/19 02:57:51;;;;;;;6.78;3.92;;;15.60;99.90;;;;;;4993333;28;20415;-74
2022/05/19 03:00:20;;;;;;;5.03;4.28;;;15.50;99.90;;;;;;4984386;28;20404;-75
2022/05/19 03:02:46;;;;;;;7.03;4.32;;;15.30;99.90;;;;;;4978916;28;20027;-75
2022/05/19 03:05:16;;;;;;;4.88;4.38;;;15.30;99.90;;;;;;4987531;28;20030;-74
2022/05/19 03:07:41;;;;;;;5.78;4.57;;;15.20;99.90;;;;;;4995553;28;20045;-75
2022/05/19 03:10:07;;;;;;;6.63;4.38;;;15.10;99.90;;;;;;4984096;28;20447;-74
2022/05/19 03:12:33;;;;;;;4.88;3.80;;;14.90;99.90;;;;;;4975711;28;20031;-75
2022/05/19 03:14:59;;;;;;;4.60;4.10;;;15.00;99.90;;;;;;4987537;28;20034;-75
2022/05/19 03:17:25;;;;;;;5.53;4.20;;;14.90;99.90;;;;;;4995604;28;20049;-74
2022/05/19 03:19:53;;;;;;;7.20;4.18;;;15.00;99.90;;;;;;4984252;28;20018;-74
2022/05/19 03:22:19;;;;;;;5.13;4.32;;;15.00;99.90;;;;;;4993487;28;20038;-74
2022/05/19 03:24:44;;;;;;;5.40;4.50;;;14.90;99.90;;;;;;4984280;28;20077;-75
2022/05/19 03:27:10;;;;;;;6.63;4.70;;;14.90;99.90;;;;;;4988954;28;20540;-76
2022/05/19 03:29:36;;;;;;;5.97;4.03;;;14.90;99.90;;;;;;4987298;28;20109;-75
2022/05/19 03:32:02;;;;;;;5.40;4.40;;;15.00;99.90;;;;;;4981749;28;20033;-75
2022/05/19 03:34:28;;;;;;;4.30;3.85;;;14.90;99.90;;;;;;4982575;28;20026;-75
2022/05/19 03:36:53;;;;;;;6.25;4.50;;;14.80;99.90;;;;;;4987406;28;20031;-75
2022/05/19 03:39:19;;;;;;;6.63;4.72;;;14.70;99.90;;;;;;4987281;28;20480;-75
2022/05/19 03:41:44;;;;;;;4.68;4.28;;;14.60;99.90;;;;;;4976592;28;20049;-76
2022/05/19 03:44:10;;;;;;;6.05;4.45;;;14.60;99.90;;;;;;4974479;28;20055;-76
2022/05/19 03:46:36;;;;;;;5.82;4.28;;;14.50;99.90;;;;;;4988533;28;20063;-75
2022/05/19 03:49:01;;;;;;;6.78;4.72;;;14.50;99.90;;;;;;4986864;28;20046;-74
2022/05/19 03:51:30;;;;;;;5.72;4.57;;;14.50;99.90;;;;;;4994249;28;20106;-74
2022/05/19 03:53:55;;;;;;;7.97;4.55;;;14.60;99.90;;;;;;4983428;28;20018;-73
2022/05/19 03:56:23;;;;;;;6.18;5.03;;;14.50;99.90;;;;;;4980777;28;20111;-76
2022/05/19 03:58:49;;;;;;;7.43;4.30;;;14.50;99.90;;;;;;4982608;28;20137;-75
2022/05/19 04:01:16;;;;;;;5.35;4.40;;;14.50;99.90;;;;;;4986377;28;20026;-74
2022/05/19 04:03:42;;;;;;;7.25;4.63;;;14.50;99.90;;;;;;4975262;28;20035;-74
2022/05/19 04:06:07;;;;;;;5.25;4.70;;;14.60;99.90;;;;;;4973784;28;20030;-74
2022/05/19 04:08:33;;;;;;;5.80;4.82;;;14.40;99.90;;;;;;4986203;28;20050;-74
2022/05/19 04:10:59;;;;;;;6.13;4.57;;;14.20;99.90;;;;;;4980768;28;20495;-75
2022/05/19 04:13:25;;;;;;;6.57;4.55;;;14.40;99.90;;;;;;4981259;28;20041;-74
2022/05/19 04:15:50;;;;;;;7.40;4.53;;;14.50;99.90;;;;;;4986791;28;20416;-75
2022/05/19 04:18:16;;;;;;;7.22;4.40;;;14.40;99.90;;;;;;4973518;28;20428;-74
2022/05/19 04:20:43;;;;;;;8.48;5.35;;;14.60;99.90;;;;;;4992448;28;20026;-74
2022/05/19 04:23:09;;;;;;;5.40;4.82;;;14.70;99.90;;;;;;4994330;28;20072;-74
2022/05/19 04:25:35;;;;;;;5.10;4.60;;;14.70;99.90;;;;;;4974568;28;20069;-75
2022/05/19 04:28:01;;;;;;;6.25;4.38;;;14.70;99.90;;;;;;4974751;28;20023;-74
2022/05/19 04:30:27;;;;;;;4.65;4.20;;;14.60;99.90;;;;;;4987000;28;20101;-74
2022/05/19 04:32:53;;;;;;;5.07;4.55;;;14.50;99.90;;;;;;4986535;28;20515;-75
2022/05/19 04:35:19;;;;;;;5.63;5.03;;;14.60;99.90;;;;;;4994609;28;20421;-74
2022/05/19 04:37:45;;;;;;;5.10;4.53;;;14.80;99.90;;;;;;4982641;28;20035;-74
2022/05/19 04:40:12;;;;;;;5.88;4.93;;;15.10;99.90;;;;;;4972931;28;20027;-74
2022/05/19 04:42:38;;;;;;;6.57;4.82;;;15.50;99.90;;;;;;4974263;28;20023;-74
2022/05/19 04:45:05;;;;;;;4.70;4.15;;;15.60;99.90;;;;;;4987661;28;20081;-74
2022/05/19 04:47:31;;;;;;;7.30;3.60;;;15.90;99.90;;;;;;4986024;28;20030;-74
2022/05/19 04:49:56;;;;;;;4.28;3.83;;;15.90;99.90;;;;;;4974923;28;20027;-74
2022/05/19 04:52:22;;;;;;;5.43;3.83;;;15.90;99.90;;;;;;4985290;28;20027;-74
2022/05/19 04:54:49;;;;;;;3.92;3.50;;;15.90;99.90;;;;;;4974707;28;20115;-74
2022/05/19 04:57:14;;;;;;;7.57;3.35;;;16.30;99.90;;;;;;4986635;28;20038;-74
2022/05/19 04:59:41;;;;;;;4.65;3.38;;;16.60;99.90;;;;;;4980309;28;20038;-74
2022/05/19 05:02:08;;;;;;;5.95;3.63;;;16.70;99.90;;;;;;4980660;28;20023;-75
2022/05/19 05:04:34;;;;;;;5.68;3.50;;;16.90;99.90;;;;;;4985711;28;20081;-75
2022/05/19 05:07:00;;;;;;;5.53;3.33;;;17.00;99.90;;;;;;4985175;28;20030;-74
2022/05/19 05:09:25;;;;;;;5.03;3.33;;;17.10;99.90;;;;;;4973233;28;20046;-75
2022/05/19 05:11:51;;;;;;;5.05;3.38;;;17.30;99.90;;;;;;4973317;28;20054;-74
2022/05/19 05:14:17;;;;;;;3.60;3.30;;;17.30;99.90;;;;;;4992716;28;20054;-74
2022/05/19 05:16:50;;;;;;;4.45;3.70;;;17.30;99.90;;;;;;4980565;28;20022;-75
2022/05/19 05:19:19;;;;;;;4.90;3.20;;;17.40;99.90;;;;;;4968242;28;20034;-75
2022/05/19 05:21:54;;;;;;;5.13;3.78;;;17.30;99.90;;;;;;4977498;28;20027;-75
2022/05/19 05:24:20;;;;;;;4.25;3.83;;;17.10;99.90;;;;;;4982307;28;20030;-74
2022/05/19 05:26:46;;;;;;;7.38;3.70;;;16.90;99.90;;;;;;4991046;28;20396;-75
2022/05/19 05:29:12;;;;;;;4.40;3.40;;;16.80;99.90;;;;;;4982073;28;20076;-74
2022/05/19 05:31:38;;;;;;;4.47;3.30;;;16.80;99.90;;;;;;4979521;28;20034;-75
2022/05/19 05:34:04;;;;;;;5.32;3.70;;;16.90;99.90;;;;;;4984422;28;20415;-75
2022/05/19 05:36:29;;;;;;;4.35;3.83;;;17.10;99.90;;;;;;4975552;28;20370;-74
2022/05/19 05:38:55;;;;;;;4.55;3.45;;;17.10;99.90;;;;;;4983219;28;20138;-75
2022/05/19 05:41:20;;;;;;;5.90;3.95;;;17.00;99.90;;;;;;4984795;28;20121;-74
2022/05/19 05:43:46;;;;;;;3.50;3.20;;;17.20;99.90;;;;;;4980432;28;20037;-75
2022/05/19 05:46:14;;;;;;;4.20;3.22;;;17.50;99.90;;;;;;4978047;28;20038;-74
2022/05/19 05:48:41;;;;;;;5.88;3.45;;;17.80;99.90;;;;;;4973133;28;20101;-74
2022/05/19 05:51:09;;;;;;;5.55;2.90;;;18.00;99.90;;;;;;4972764;28;20101;-75
2022/05/19 05:53:36;;;;;;;5.55;3.40;;;18.10;99.90;;;;;;4981180;28;20030;-74
2022/05/19 05:56:03;;;;;;;6.32;3.60;;;18.20;99.90;;;;;;4976736;28;20031;-75
2022/05/19 06:01:11;;;;;;;5.55;3.47;;;18.50;99.90;;;;;;5020156;28;20049;-75
2022/05/19 06:03:37;;;;;;;4.28;3.28;;;18.50;99.90;;;;;;5024209;28;20104;-75
2022/05/19 06:06:03;;;;;;;4.75;3.20;;;18.60;99.90;;;;;;5018703;28;20036;-75
2022/05/19 06:08:29;;;;;;;4.38;3.00;;;18.80;99.90;;;;;;5032069;28;20033;-75
2022/05/19 06:10:55;;;;;;;7.18;3.63;;;18.90;99.90;;;;;;5025896;28;20030;-75
2022/05/19 06:13:21;;;;;;;3.42;2.95;;;19.00;99.90;;;;;;5023953;28;20421;-75
2022/05/19 06:15:47;;;;;;;3.75;3.05;;;19.10;99.90;;;;;;5001048;28;20034;-76
2022/05/19 06:18:13;;;;;;;4.03;3.03;;;19.20;99.90;;;;;;5020297;28;20380;-75
2022/05/19 06:20:40;;;;;;;3.30;3.00;;;19.30;99.90;;;;;;5024893;28;20026;-75
2022/05/19 06:23:07;;;;;;;6.82;3.40;;;19.30;99.90;;;;;;5023369;28;20435;-75
2022/05/19 06:25:33;;;;;;;4.63;3.55;;;19.30;99.90;;;;;;5000992;28;20045;-74
2022/05/19 06:28:02;;;;;;;5.28;3.25;;;19.30;99.90;;;;;;5019780;28;20061;-76
2022/05/19 06:30:29;;;;;;;5.28;3.60;;;19.40;99.90;;;;;;5016791;28;20030;-75
2022/05/19 06:32:55;;;;;;;6.43;3.10;;;19.50;99.90;;;;;;5001295;28;20391;-75
2022/05/19 06:35:28;;;;;;;7.00;3.35;;;19.50;99.90;;;;;;5024913;28;20476;-75
2022/05/19 06:37:54;;;;;;;5.28;3.22;;;19.50;99.90;;;;;;5025176;28;20025;-75
2022/05/19 06:40:21;;;;;;;6.47;3.63;;;19.70;99.90;;;;;;5018245;28;20429;-76
2022/05/19 06:42:47;;;;;;;5.18;4.15;;;19.70;99.90;;;;;;5013639;28;20383;-75
2022/05/19 06:45:17;;;;;;;5.95;3.30;;;19.70;99.90;;;;;;5006583;28;20030;-75
2022/05/19 06:47:42;;;;;;;5.03;2.85;;;19.90;99.90;;;;;;5024807;28;20211;-74
2022/05/19 06:50:11;;;;;;;3.30;2.92;;;20.00;99.90;;;;;;5019086;28;20022;-75
2022/05/19 06:52:45;;;;;;;3.75;3.00;;;20.20;99.90;;;;;;5016095;28;20041;-75
2022/05/19 06:55:13;;;;;;;5.45;3.55;;;20.40;99.90;;;;;;5003030;28;20018;-74
2022/05/19 06:57:38;;;;;;;6.22;3.15;;;20.40;99.90;;;;;;5017981;28;20121;-75
2022/05/19 07:00:06;;;;;;;4.30;3.20;;;20.50;99.90;;;;;;5022159;28;20030;-75
2022/05/19 07:02:32;;;;;;;5.07;3.05;;;20.30;99.90;;;;;;5006414;28;20022;-75
2022/05/19 07:04:58;;;;;;;3.95;3.30;;;20.10;99.90;;;;;;5020362;28;20022;-76
2022/05/19 07:07:24;;;;;;;5.43;3.40;;;20.40;99.90;;;;;;5028788;28;20030;-75
2022/05/19 07:09:50;;;;;;;7.53;3.63;;;20.30;99.90;;;;;;5002517;28;20029;-75
2022/05/19 07:12:22;;;;;;;4.95;3.30;;;20.20;99.90;;;;;;5016779;28;20021;-75
2022/05/19 07:14:48;;;;;;;4.00;3.53;;;20.40;99.90;;;;;;5024749;28;20057;-75
2022/05/19 07:17:14;;;;;;;5.13;3.30;;;20.50;99.90;;;;;;5018485;28;20100;-75
2022/05/19 07:22:24;;;;;;;6.18;3.50;;;20.70;99.90;;;;;;5015707;28;20141;-76
2022/05/19 07:24:51;;;;;;;4.93;3.08;;;20.70;99.90;;;;;;5009160;28;20124;-75
2022/05/19 07:27:17;;;;;;;7.80;3.45;;;20.80;99.90;;;;;;5029355;28;20096;-76
2022/05/19 07:29:43;;;;;;;5.47;2.90;;;20.40;99.90;;;;;;5027350;28;20522;-77
2022/05/19 07:32:08;;;;;;;6.80;3.33;;;20.60;99.90;;;;;;5021630;28;20075;-77
2022/05/19 07:34:37;;;;;;;6.78;3.28;;;20.90;99.90;;;;;;5029458;28;20511;-77
2022/05/19 07:37:04;;;;;;;6.43;3.58;;;21.10;99.90;;;;;;5010811;28;20030;-77
2022/05/19 07:39:29;;;;;;;12.90;4.68;;;21.30;99.90;;;;;;5009568;28;20052;-77
2022/05/19 07:41:56;;;;;;;6.30;3.25;;;21.20;99.90;;;;;;5019483;28;20029;-78
2022/05/19 07:44:27;;;;;;;5.15;3.20;;;21.10;99.90;;;;;;5029521;28;20425;-77
2022/05/19 07:46:53;;;;;;;4.05;2.60;;;21.30;99.90;;;;;;5021189;28;20773;-74
2022/05/19 07:49:19;;;;;;;3.97;2.83;;;21.30;99.90;;;;;;5021618;28;20090;-76
2022/05/19 07:51:45;;;;;;;3.83;2.88;;;21.50;99.90;;;;;;5027166;28;20022;-79
2022/05/19 07:54:14;;;;;;;3.88;2.80;;;21.20;99.90;;;;;;5026955;28;20478;-76
2022/05/19 07:56:41;;;;;;;4.65;2.85;;;20.90;99.90;;;;;;5026175;28;20029;-75
2022/05/19 07:59:08;;;;;;;3.78;2.75;;;21.00;99.90;;;;;;5009628;28;20029;-76
2022/05/19 08:01:34;;;;;;;5.68;3.03;;;21.10;99.90;;;;;;5021947;28;20034;-76
2022/05/19 08:04:00;;;;;;;5.90;2.78;;;21.40;99.90;;;;;;5020763;28;20614;-76
2022/05/19 08:06:29;;;;;;;5.68;2.80;;;21.60;99.90;;;;;;5025647;28;20391;-76
2022/05/19 08:08:58;;;;;;;8.57;3.00;;;21.40;99.90;;;;;;5027256;28;20045;-76
2022/05/19 08:11:23;;;;;;;9.73;3.08;;;21.20;99.90;;;;;;5022508;28;20018;-76
2022/05/19 08:16:33;;;;;;;4.88;2.78;;;21.70;99.90;;;;;;5022136;28;20099;-76
2022/05/19 08:18:59;;;;;;;3.10;2.50;;;21.80;99.90;;;;;;5027317;28;20562;-74
2022/05/19 08:21:24;;;;;;;4.57;2.55;;;21.80;99.90;;;;;;5024734;28;20569;-76
2022/05/19 08:23:50;;;;;;;4.63;2.63;;;21.60;99.90;;;;;;5001769;28;20097;-76
2022/05/19 08:26:16;;;;;;;5.20;2.45;;;21.90;99.90;;;;;;5022086;28;20392;-76
2022/05/19 08:28:43;;;;;;;4.65;2.40;;;22.10;99.90;;;;;;5026711;28;20085;-76
2022/05/19 08:31:20;;;;;;;5.18;2.35;;;22.30;99.90;;;;;;5007145;28;20076;-76
2022/05/19 08:33:47;;;;;;;3.72;2.58;;;22.30;99.90;;;;;;5020365;28;20025;-76
2022/05/19 08:36:13;;;;;;;4.45;2.47;;;22.60;99.90;;;;;;5015773;28;20478;-76
2022/05/19 08:38:40;;;;;;;4.68;2.75;;;22.70;99.90;;;;;;5020044;28;20080;-76
2022/05/19 08:41:27;;;;;;;3.20;2.45;;;22.40;99.90;;;;;;5019469;28;20499;-77
2022/05/19 08:44:11;;;;;;;5.80;2.88;;;22.40;99.90;;;;;;5024123;28;20026;-76
2022/05/19 08:46:40;;;;;;;3.42;2.53;;;22.60;99.90;;;;;;5026949;28;20084;-76
2022/05/19 08:49:49;;;;;;;3.90;2.50;;;22.70;99.90;;;;;;5008031;28;20450;-75
2022/05/19 08:52:18;;;;;;;4.57;2.38;;;22.90;99.90;;;;;;5021005;28;20033;-76
2022/05/19 08:54:46;;;;;;;2.83;2.58;;;22.80;99.90;;;;;;5008811;28;20101;-75
2022/05/19 08:57:24;;;;;;;5.45;2.80;;;23.00;99.90;;;;;;5025031;28;20030;-75
2022/05/19 09:00:10;;;;;;;4.88;2.80;;;23.10;99.90;;;;;;5019748;28;20025;-76
2022/05/19 09:03:16;;;;;;;5.57;2.47;;;23.20;99.90;;;;;;5032229;28;20115;-76
2022/05/19 09:06:11;;;;;;;4.78;2.60;;;23.30;99.90;;;;;;5001746;28;20026;-75
2022/05/19 09:09:22;;;;;;;3.20;2.50;;;23.20;99.90;;;;;;4932485;28;20126;-75
2022/05/19 09:11:56;;;;;;;2.85;2.30;;;23.40;99.90;;;;;;4984223;28;20072;-77
2022/05/19 09:14:24;;;;;;;3.40;2.53;;;23.50;99.90;;;;;;5019180;28;20052;-77
2022/05/19 09:16:53;;;;;;;5.60;2.78;;;23.50;99.90;;;;;;5019461;28;20480;-76
2022/05/19 09:19:34;;;;;;;3.25;2.42;;;23.40;99.90;;;;;;5019562;28;20028;-77
2022/05/19 09:22:33;;;;;;;5.05;2.60;;;23.70;99.90;;;;;;5018576;28;20021;-76
2022/05/19 09:25:03;;;;;;;3.83;2.40;;;23.70;99.90;;;;;;5019027;28;20018;-76
2022/05/19 09:27:29;;;;;;;4.68;2.80;;;23.80;99.90;;;;;;5019849;28;20032;-76
2022/05/19 09:29:56;;;;;;;5.82;2.40;;;24.00;99.90;;;;;;5001178;28;20026;-76
2022/05/19 09:32:37;;;;;;;4.38;2.50;;;24.20;99.90;;;;;;5006832;28;20029;-76
2022/05/19 09:35:24;;;;;;;5.90;2.90;;;24.20;99.90;;;;;;5014798;28;20101;-76
2022/05/19 09:38:17;;;;;;;4.38;2.40;;;24.00;99.90;;;;;;5020429;28;20034;-76
2022/05/19 09:40:46;;;;;;;3.00;2.28;;;24.00;99.90;;;;;;5020930;28;20083;-76
2022/05/19 09:43:21;;;;;;;4.88;2.33;;;24.60;99.90;;;;;;5018826;28;20040;-76
2022/05/19 09:45:50;;;;;;;3.55;2.60;;;24.60;99.90;;;;;;5026200;28;20040;-76
2022/05/19 09:48:24;;;;;;;4.80;2.50;;;24.70;99.90;;;;;;5001132;28;20029;-76
2022/05/19 09:50:50;;;;;;;3.15;2.30;;;24.10;99.60;;;;;;5019039;28;20021;-76
2022/05/19 09:53:26;;;;;;;5.97;2.72;;;24.20;99.90;;;;;;5031358;28;20021;-73
2022/05/19 09:55:57;;;;;;;3.45;2.33;;;24.60;99.90;;;;;;5045365;28;20079;-76
2022/05/19 09:58:30;;;;;;;5.18;2.35;;;24.90;99.90;;;;;;5023119;28;20026;-76
2022/05/19 10:01:19;;;;;;;4.43;2.58;;;25.20;99.90;;;;;;5026152;28;20046;-76
2022/05/19 10:03:51;;;;;;;2.92;2.60;;;25.10;99.90;;;;;;5025793;28;20104;-76
2022/05/19 10:06:21;;;;;;;5.82;2.30;;;25.50;99.90;;;;;;5020096;28;20021;-76
2022/05/19 10:08:48;;;;;;;2.95;2.10;;;25.20;99.40;;;;;;5022467;28;20041;-76
2022/05/19 10:11:13;;;;;;;3.15;2.35;;;25.10;99.20;;;;;;5006027;28;20026;-76
2022/05/19 10:13:47;;;;;;;4.18;2.25;;;25.20;98.50;;;;;;5021019;28;20080;-76
2022/05/19 10:16:30;;;;;;;4.28;2.28;;;25.10;99.80;;;;;;5017759;28;20063;-76
2022/05/19 10:19:10;;;;;;;3.22;2.50;;;24.90;97.70;;;;;;5027453;28;20429;-77
2022/05/19 10:21:55;;;;;;;5.47;2.63;;;24.90;99.50;;;;;;5017232;28;20099;-76
2022/05/19 10:24:36;;;;;;;4.25;2.90;;;25.10;99.90;;;;;;5023278;28;20013;-76
2022/05/19 10:33:21;;;;;;;4.40;2.30;;;25.90;97.90;;;;;;5025740;28;20064;-76
2022/05/19 10:36:18;;;;;;;4.57;2.35;;;26.10;98.70;;;;;;5019873;28;20068;-77
2022/05/19 10:39:14;;;;;;;6.55;2.22;;;26.20;97.80;;;;;;5026511;28;20044;-76
2022/05/19 10:42:13;;;;;;;4.22;2.38;;;26.10;98.40;;;;;;5016017;28;20018;-77
2022/05/19 10:44:41;;;;;;;2.95;2.30;;;26.60;98.60;;;;;;5018913;28;20029;-77
2022/05/19 10:47:31;;;;;;;6.70;2.42;;;26.60;98.70;;;;;;5017859;28;20049;-76
2022/05/19 10:50:10;;;;;;;4.18;2.35;;;26.50;98.20;;;;;;5021637;28;20574;-77
2022/05/19 10:53:09;;;;;;;3.35;2.10;;;26.20;95.80;;;;;;5028307;28;20044;-77
2022/05/19 10:55:52;;;;;;;4.18;2.45;;;26.40;96.10;;;;;;5015703;28;20029;-77
2022/05/19 10:58:29;;;;;;;2.45;2.13;;;26.50;98.50;;;;;;5023594;28;20116;-75
2022/05/19 11:01:25;;;;;;;3.88;2.40;;;26.60;96.50;;;;;;5020988;28;20445;-76
2022/05/19 11:04:19;;;;;;;3.80;2.17;;;26.10;96.50;;;;;;5023642;28;20115;-74
2022/05/19 11:06:52;;;;;;;6.55;3.90;;;26.30;97.60;;;;;;5025849;28;20029;-75
2022/05/19 11:09:40;;;;;;;5.05;2.45;;;27.20;97.30;;;;;;5021613;28;20433;-77
2022/05/19 11:12:35;;;;;;;4.18;2.28;;;27.10;97.90;;;;;;5016733;28;20025;-76
2022/05/19 11:15:14;;;;;;;3.72;2.13;;;27.20;97.20;;;;;;5005540;28;20060;-77
2022/05/19 11:18:08;;;;;;;4.80;1.88;;;27.20;97.40;;;;;;5004360;28;20570;-76
2022/05/19 11:21:22;;;;;;;3.28;1.83;;;27.00;95.80;;;;;;5003143;28;20033;-76
2022/05/19 11:24:22;;;;;;;3.70;1.80;;;27.40;98.40;;;;;;4937599;29;20028;-76
2022/05/19 11:27:06;;;;;;;6.13;2.22;;;27.10;97.30;;;;;;5029863;28;20057;-76
2022/05/19 11:29:43;;;;;;;3.55;2.00;;;27.40;97.00;;;;;;5040890;28;20021;-76
2022/05/19 11:32:19;;;;;;;3.25;2.60;;;28.10;96.10;;;;;;5028261;28;20109;-76
2022/05/19 11:35:05;;;;;;;4.45;2.20;;;28.30;97.50;;;;;;5035239;28;20574;-77
2022/05/19 11:37:42;;;;;;;4.07;2.28;;;28.40;95.40;;;;;;5024106;28;20026;-77
2022/05/19 11:40:20;;;;;;;6.78;2.03;;;28.50;96.30;;;;;;5015925;28;20056;-74
2022/05/19 11:43:15;;;;;;;3.90;2.13;;;29.10;95.10;;;;;;5043672;28;20116;-77
2022/05/19 11:45:58;;;;;;;4.95;2.47;;;29.00;95.60;;;;;;5018915;28;20154;-75
2022/05/19 11:57:32;;;;;;;2.92;2.03;;;29.30;94.00;;;;;;5029166;28;20083;-76
2022/05/19 12:00:00;;;;;;;3.00;2.10;;;29.20;94.00;;;;;;5025678;28;20034;-74
2022/05/19 12:02:52;;;;;;;4.28;2.08;;;29.30;94.10;;;;;;5042201;28;20487;-78
2022/05/19 12:05:28;;;;;;;5.45;1.80;;;29.80;93.50;;;;;;4999251;28;20037;-76
2022/05/19 12:07:58;;;;;;;2.53;2.17;;;29.90;93.00;;;;;;5020557;28;20079;-76
2022/05/19 12:10:39;;;;;;;4.45;2.45;;;29.40;93.40;;;;;;5019992;28;20029;-77
2022/05/19 12:13:06;;;;;;;4.97;2.40;;;29.30;94.30;;;;;;5016088;28;20048;-76
2022/05/19 12:15:55;;;;;;;4.78;2.15;;;29.40;94.10;;;;;;5020680;28;20022;-77
2022/05/19 12:18:23;;;;;;;3.70;1.67;;;29.90;92.60;;;;;;5003241;28;20026;-75
2022/05/19 12:21:00;;;;;;;3.72;1.70;;;30.10;92.00;;;;;;5008666;28;20022;-77
2022/05/19 12:23:27;;;;;;;2.17;1.90;;;30.10;92.10;;;;;;5026627;28;20022;-76
2022/05/19 12:26:00;;;;;;;3.60;2.08;;;29.50;91.80;;;;;;5022333;28;20051;-76
2022/05/19 12:28:38;;;;;;;3.97;2.13;;;29.20;92.80;;;;;;5020302;28;20025;-76
2022/05/19 12:34:02;;;;;;;7.15;2.05;;;29.10;92.40;;;;;;5022563;28;20040;-77
2022/05/19 12:36:31;;;;;;;4.43;2.15;;;29.50;92.10;;;;;;5020221;28;20531;-76
2022/05/19 12:39:11;;;;;;;2.45;1.70;;;29.80;93.10;;;;;;5033376;28;20025;-76
2022/05/19 12:41:50;;;;;;;4.82;2.20;;;30.40;91.90;;;;;;4997383;28;20026;-77
2022/05/19 12:44:40;;;;;;;3.72;2.05;;;30.20;92.20;;;;;;5014017;28;20511;-77
2022/05/19 12:47:32;;;;;;;2.67;2.13;;;30.70;91.70;;;;;;5014005;28;20506;-76
2022/05/19 12:50:19;;;;;;;4.43;2.40;;;30.60;92.10;;;;;;5013678;28;20030;-76
2022/05/19 12:53:09;;;;;;;4.72;2.00;;;30.70;90.80;;;;;;5013335;28;20097;-76
2022/05/19 12:55:41;;;;;;;3.20;2.00;;;31.60;91.10;;;;;;5038140;28;20021;-76
2022/05/19 12:58:37;;;;;;;4.63;2.10;;;31.80;90.60;;;;;;5015287;28;20022;-76
2022/05/19 13:01:16;;;;;;;4.55;2.17;;;31.50;91.70;;;;;;5011728;28;20041;-76
2022/05/19 13:03:43;;;;;;;3.28;2.47;;;30.40;91.50;;;;;;5002961;28;20029;-76
2022/05/19 13:06:12;;;;;;;4.53;2.10;;;31.10;90.50;;;;;;5032348;28;20423;-76
2022/05/19 13:08:41;;;;;;;4.93;2.55;;;31.60;90.30;;;;;;5032821;28;20040;-76
2022/05/19 13:11:13;;;;;;;4.60;2.33;;;31.90;90.00;;;;;;5025197;28;20423;-76
2022/05/19 13:14:12;;;;;;;3.10;1.92;;;32.40;90.30;;;;;;4995611;28;20022;-76
2022/05/19 13:16:42;;;;;;;6.43;2.47;;;32.30;88.70;;;;;;5001989;28;20100;-76
2022/05/19 13:19:14;;;;;;;2.47;2.13;;;31.60;90.60;;;;;;5025912;28;20026;-76
2022/05/19 13:21:56;;;;;;;3.03;2.42;;;31.50;90.30;;;;;;5025605;28;20068;-76
2022/05/19 13:24:24;;;;;;;4.72;2.38;;;31.90;90.60;;;;;;5012782;28;20032;-77
2022/05/19 13:30:20;;;;;;;2.97;2.33;;;32.10;89.60;;;;;;5025897;28;20037;-76
2022/05/19 13:32:27;;;;;;;3.30;1.80;;;31.90;86.90;;;;;;5022000;28;20083;-75
2022/05/19 13:34:55;;;;;;;2.92;1.98;;;31.50;88.20;;;;;;5031844;28;20049;-77
2022/05/19 13:37:31;;;;;;;3.10;1.80;;;30.60;83.30;;;;;;5014071;28;20033;-77
2022/05/19 13:40:18;;;;;;;3.10;1.90;;;30.70;86.70;;;;;;5017404;28;20109;-77
2022/05/19 13:42:52;;;;;;;5.18;1.85;;;30.50;83.90;;;;;;5016013;28;20025;-76